Time;durP1;ratioP1;P1;durP2;ratioP2;P2;SDS_P1;SDS_P2;PMS_P1;PMS_P2;Temp;Humidity;BMP_temperature;BMP_pressure;BME280_temperature;BME280_humidity;BME280_pressure;Samples;Min_cycle;Max_cycle;Signal;HPM_P1;HPM_P2
2021/09/11 00:02:26;;;;;;;17.25;15.15;;;;;;;18.50;100.00;100441.81;5076712;28;20123;-81
2021/09/11 00:04:53;;;;;;;18.95;16.42;;;;;;;18.49;100.00;100445.47;5069889;28;20451;-82
2021/09/11 00:07:19;;;;;;;20.27;15.50;;;;;;;18.46;100.00;100439.47;5068980;28;20123;-82
2021/09/11 00:09:46;;;;;;;17.75;15.93;;;;;;;18.42;100.00;100448.72;5076546;28;20044;-81
2021/09/11 00:12:13;;;;;;;18.25;16.45;;;;;;;18.39;100.00;100441.81;5083158;28;20046;-81
2021/09/11 00:14:40;;;;;;;19.88;15.68;;;;;;;18.35;100.00;100436.81;5079352;28;20073;-81
2021/09/11 00:17:07;;;;;;;16.80;14.70;;;;;;;18.35;100.00;100436.81;5087877;28;20047;-82
2021/09/11 00:19:34;;;;;;;16.98;15.18;;;;;;;18.28;100.00;100436.41;5084288;28;20029;-82
2021/09/11 00:22:00;;;;;;;17.13;15.30;;;;;;;18.33;100.00;100447.63;5090423;28;20131;-82
2021/09/11 00:24:27;;;;;;;17.15;15.20;;;;;;;18.30;100.00;100455.06;5090635;28;20036;-81
2021/09/11 00:26:55;;;;;;;15.85;14.25;;;;;;;18.30;100.00;100449.69;5093881;28;20170;-82
2021/09/11 00:29:23;;;;;;;16.15;14.45;;;;;;;18.28;100.00;100451.63;5089539;28;20104;-82
2021/09/11 00:31:49;;;;;;;15.63;14.02;;;;;;;18.28;100.00;100454.31;5083674;28;20093;-80
2021/09/11 00:34:16;;;;;;;16.33;14.63;;;;;;;18.24;100.00;100448.38;5093336;28;20064;-79
2021/09/11 00:36:43;;;;;;;16.77;15.07;;;;;;;18.22;100.00;100448.50;5088012;28;20115;-81
2021/09/11 00:39:11;;;;;;;17.15;14.57;;;;;;;18.20;100.00;100450.44;5094055;28;20100;-80
2021/09/11 00:41:39;;;;;;;16.75;14.95;;;;;;;18.21;100.00;100456.66;5089104;28;20131;-81
2021/09/11 00:44:06;;;;;;;16.25;14.57;;;;;;;18.21;100.00;100456.66;5089114;28;20048;-80
2021/09/11 00:46:32;;;;;;;16.50;14.32;;;;;;;18.19;100.00;100447.88;5094704;28;20123;-80
2021/09/11 00:48:59;;;;;;;18.63;14.88;;;;;;;18.21;100.00;100456.66;5079590;28;20140;-81
2021/09/11 00:51:26;;;;;;;19.15;15.55;;;;;;;18.18;100.00;100452.38;5081347;28;20167;-81
2021/09/11 00:53:53;;;;;;;16.70;14.90;;;;;;;18.18;100.00;100456.88;5071299;28;20861;-81
2021/09/11 00:56:20;;;;;;;17.27;15.30;;;;;;;18.18;100.00;100459.56;5072736;28;20047;-81
2021/09/11 00:58:48;;;;;;;16.63;14.95;;;;;;;18.16;100.00;100458.81;5073863;28;20059;-81
2021/09/11 01:01:16;;;;;;;17.77;15.48;;;;;;;18.18;100.00;100460.41;5077930;28;20055;-81
2021/09/11 01:03:43;;;;;;;18.40;15.85;;;;;;;18.18;100.00;100454.19;5063281;28;20130;-81
2021/09/11 01:06:10;;;;;;;17.90;15.07;;;;;;;18.21;100.00;100462.00;5088097;28;20041;-81
2021/09/11 01:08:40;;;;;;;19.35;16.98;;;;;;;18.20;100.00;100457.63;5075220;28;20610;-81
2021/09/11 01:11:07;;;;;;;17.98;16.08;;;;;;;18.17;100.00;100461.38;5071404;28;20481;-81
2021/09/11 01:13:35;;;;;;;20.48;17.35;;;;;;;18.18;100.00;100456.88;5079663;28;20744;-81
2021/09/11 01:16:02;;;;;;;20.33;15.77;;;;;;;18.19;100.00;100463.94;5065708;28;20052;-81
2021/09/11 01:18:29;;;;;;;19.30;15.68;;;;;;;18.14;100.00;100458.06;5074956;28;20131;-81
2021/09/11 01:20:56;;;;;;;18.95;16.73;;;;;;;18.16;100.00;100464.19;5085845;28;20042;-80
2021/09/11 01:23:24;;;;;;;19.70;15.23;;;;;;;18.12;100.00;100462.69;5099526;28;20039;-81
2021/09/11 01:25:51;;;;;;;19.48;16.33;;;;;;;18.14;100.00;100477.69;5067599;28;20048;-81
2021/09/11 01:28:18;;;;;;;19.08;16.67;;;;;;;18.09;100.00;100466.50;5056441;28;20037;-81
2021/09/11 01:30:45;;;;;;;18.27;16.30;;;;;;;18.14;100.00;100464.28;5085433;28;20044;-81
2021/09/11 01:33:12;;;;;;;18.70;16.58;;;;;;;18.15;100.00;100459.78;5063334;28;20041;-81
2021/09/11 01:35:39;;;;;;;18.65;16.55;;;;;;;18.15;100.00;100467.81;5056919;28;20051;-81
2021/09/11 01:38:07;;;;;;;18.38;16.02;;;;;;;18.17;100.00;100463.22;5071883;28;20071;-81
2021/09/11 01:40:35;;;;;;;19.30;17.15;;;;;;;18.21;100.00;100475.41;5074950;28;20044;-81
2021/09/11 01:43:02;;;;;;;18.38;16.45;;;;;;;18.20;100.00;100471.00;5076409;28;20048;-81
2021/09/11 01:45:30;;;;;;;20.25;16.80;;;;;;;18.23;100.00;100465.44;5081488;28;20052;-81
2021/09/11 01:47:57;;;;;;;19.77;16.77;;;;;;;18.24;100.00;100472.50;5075504;28;20049;-81
2021/09/11 01:50:24;;;;;;;22.23;17.20;;;;;;;18.23;100.00;100466.28;5053881;28;20048;-81
2021/09/11 01:52:53;;;;;;;20.35;15.57;;;;;;;18.23;100.00;100471.63;5058025;28;20505;-81
2021/09/11 01:55:21;;;;;;;20.23;17.23;;;;;;;18.23;100.00;100470.78;5075577;28;20671;-81
2021/09/11 01:57:49;;;;;;;19.25;17.15;;;;;;;18.24;100.00;100477.84;5064544;28;20509;-81
2021/09/11 02:00:18;;;;;;;18.58;16.35;;;;;;;18.26;100.00;100472.38;5076420;28;20088;-81
2021/09/11 02:02:45;;;;;;;19.08;16.83;;;;;;;18.22;100.00;100469.06;5078212;28;20048;-81
2021/09/11 02:05:14;;;;;;;19.80;16.90;;;;;;;18.17;100.00;100460.53;5072088;28;20055;-81
2021/09/11 02:07:42;;;;;;;20.73;17.65;;;;;;;18.18;100.00;100473.81;5079782;28;20087;-81
2021/09/11 02:10:09;;;;;;;20.60;16.63;;;;;;;18.17;100.00;100472.09;5066370;28;20140;-81
2021/09/11 02:12:36;;;;;;;21.90;16.65;;;;;;;18.21;100.00;100475.41;5076203;28;20040;-81
2021/09/11 02:15:04;;;;;;;20.95;16.80;;;;;;;18.25;100.00;100473.34;5090550;28;20074;-80
2021/09/11 02:17:31;;;;;;;20.48;17.52;;;;;;;18.24;100.00;100467.13;5091108;28;20108;-80
2021/09/11 02:19:58;;;;;;;18.42;15.90;;;;;;;18.21;100.00;100468.22;5067339;28;20087;-82
2021/09/11 02:22:25;;;;;;;20.10;17.00;;;;;;;18.21;100.00;100467.38;5078652;28;20041;-82
2021/09/11 02:24:51;;;;;;;20.55;16.52;;;;;;;18.20;100.00;100461.16;5087600;28;20108;-80
2021/09/11 02:27:18;;;;;;;20.95;17.48;;;;;;;18.20;100.00;100469.19;5086518;28;20043;-80
2021/09/11 02:29:44;;;;;;;20.35;17.45;;;;;;;18.21;100.00;100464.69;5096259;28;20108;-80
2021/09/11 02:32:13;;;;;;;17.70;15.80;;;;;;;18.20;100.00;100471.88;5070634;28;20056;-81
2021/09/11 02:34:40;;;;;;;19.88;16.98;;;;;;;18.20;100.00;100462.97;5081101;28;20052;-81
2021/09/11 02:37:09;;;;;;;19.90;16.95;;;;;;;18.20;100.00;100466.50;5084505;28;20143;-81
2021/09/11 02:39:36;;;;;;;19.23;17.17;;;;;;;18.16;100.00;100465.03;5074786;28;20107;-81
2021/09/11 02:42:03;;;;;;;19.38;17.27;;;;;;;18.12;100.00;100466.22;5085988;28;20037;-81
2021/09/11 02:44:31;;;;;;;19.45;16.55;;;;;;;18.12;100.00;100465.38;5086014;28;20096;-81
2021/09/11 02:46:58;;;;;;;19.83;17.70;;;;;;;18.11;100.00;100469.03;5085020;28;20056;-81
2021/09/11 02:49:25;;;;;;;21.02;17.15;;;;;;;18.11;100.00;100475.25;5089953;28;20115;-81
2021/09/11 02:51:51;;;;;;;20.00;16.65;;;;;;;18.07;100.00;100463.06;5082516;28;20285;-81
2021/09/11 02:54:18;;;;;;;20.58;17.55;;;;;;;18.04;100.00;100467.81;5094190;28;20050;-81
2021/09/11 02:56:44;;;;;;;20.42;16.98;;;;;;;18.01;100.00;100465.34;5088058;28;20100;-81
2021/09/11 02:59:11;;;;;;;22.80;18.23;;;;;;;17.99;100.00;100467.31;5072989;28;20044;-81
2021/09/11 03:01:41;;;;;;;21.08;17.85;;;;;;;17.97;100.00;100471.91;5084382;28;20045;-81
2021/09/11 03:04:09;;;;;;;22.30;18.13;;;;;;;17.95;100.00;100481.91;5081254;28;20098;-81
2021/09/11 03:06:35;;;;;;;18.52;16.50;;;;;;;17.89;100.00;100467.16;5084933;28;20074;-81
2021/09/11 03:09:02;;;;;;;20.85;18.60;;;;;;;17.86;100.00;100476.28;5068909;28;20067;-81
2021/09/11 03:11:29;;;;;;;20.30;17.88;;;;;;;17.87;100.00;100474.47;5089996;28;20100;-81
2021/09/11 03:13:55;;;;;;;20.50;18.20;;;;;;;17.87;100.00;100469.09;5082787;28;20037;-81
2021/09/11 03:16:22;;;;;;;19.40;17.25;;;;;;;17.85;100.00;100466.53;5075560;28;20140;-81
2021/09/11 03:18:49;;;;;;;23.45;19.33;;;;;;;17.90;100.00;100478.72;5079434;28;20051;-81
2021/09/11 03:21:16;;;;;;;25.83;20.50;;;;;;;17.92;100.00;100476.78;5061213;28;20068;-81
2021/09/11 03:23:42;;;;;;;23.35;19.20;;;;;;;17.96;100.00;100473.75;5069854;28;20095;-81
2021/09/11 03:26:09;;;;;;;22.25;18.60;;;;;;;17.98;100.00;100471.81;5074092;28;20058;-81
2021/09/11 03:28:38;;;;;;;21.83;18.23;;;;;;;18.00;100.00;100483.25;5084277;28;20064;-81
2021/09/11 03:31:04;;;;;;;19.50;17.42;;;;;;;17.99;100.00;100484.22;5084448;28;20064;-81
2021/09/11 03:33:34;;;;;;;20.75;18.48;;;;;;;18.01;100.00;100476.06;5083603;28;20109;-81
2021/09/11 03:36:01;;;;;;;20.85;17.38;;;;;;;18.03;100.00;100476.81;5062075;28;20051;-81
2021/09/11 03:38:28;;;;;;;19.90;16.90;;;;;;;18.06;100.00;100479.28;5074904;28;20048;-81
2021/09/11 03:40:56;;;;;;;19.58;17.15;;;;;;;18.10;100.00;100492.28;5082844;28;20043;-81
2021/09/11 03:43:22;;;;;;;19.70;16.80;;;;;;;18.11;100.00;100483.28;5089670;28;20132;-81
2021/09/11 03:45:49;;;;;;;20.88;18.00;;;;;;;18.07;100.00;100475.63;5079212;28;20416;-81
2021/09/11 03:48:16;;;;;;;21.80;19.02;;;;;;;18.05;100.00;100475.72;5077507;28;20075;-81
2021/09/11 03:50:43;;;;;;;20.33;18.17;;;;;;;18.01;100.00;100484.13;5090179;28;20075;-81
2021/09/11 03:53:10;;;;;;;24.35;18.45;;;;;;;17.95;100.00;100479.22;5071819;28;20040;-81
2021/09/11 03:55:37;;;;;;;21.42;17.85;;;;;;;17.97;100.00;100488.84;5077596;28;20134;-81
2021/09/11 03:58:08;;;;;;;22.30;17.98;;;;;;;17.98;100.00;100482.53;5070438;28;20054;-81
2021/09/11 04:00:35;;;;;;;21.00;18.40;;;;;;;17.97;100.00;100488.00;5079767;28;20040;-81
2021/09/11 04:03:04;;;;;;;20.73;18.00;;;;;;;17.97;100.00;100479.94;5073697;28;20044;-82
2021/09/11 04:05:33;;;;;;;21.10;18.52;;;;;;;17.97;100.00;100490.66;5070804;28;22061;-82
2021/09/11 04:08:03;;;;;;;21.75;18.10;;;;;;;17.95;100.00;100490.78;5093500;28;20309;-81
2021/09/11 04:10:30;;;;;;;20.50;18.30;;;;;;;17.97;100.00;100496.03;5082414;28;20056;-81
2021/09/11 04:12:57;;;;;;;22.38;18.45;;;;;;;17.95;100.00;100488.09;5078120;28;20652;-82
2021/09/11 04:15:24;;;;;;;20.77;17.58;;;;;;;17.95;100.00;100490.78;5077399;28;20053;-82
2021/09/11 04:17:51;;;;;;;21.83;18.13;;;;;;;17.91;100.00;100491.16;5072867;28;20049;-82
2021/09/11 04:20:17;;;;;;;20.40;18.05;;;;;;;17.87;100.00;100494.06;5076160;28;20048;-81
2021/09/11 04:22:44;;;;;;;20.42;17.40;;;;;;;17.88;100.00;100497.59;5076898;28;20067;-82
2021/09/11 04:25:11;;;;;;;21.05;17.80;;;;;;;17.89;100.00;100499.31;5073424;28;20044;-82
2021/09/11 04:27:40;;;;;;;20.58;16.77;;;;;;;17.87;100.00;100498.56;5076249;28;20742;-82
2021/09/11 04:30:07;;;;;;;18.70;16.17;;;;;;;17.88;100.00;100498.44;5078167;28;20424;-81
2021/09/11 04:32:34;;;;;;;20.45;17.58;;;;;;;17.91;100.00;100497.38;5075286;28;20055;-81
2021/09/11 04:35:01;;;;;;;18.35;16.38;;;;;;;17.97;100.00;100501.38;5073431;28;20040;-81
2021/09/11 04:37:28;;;;;;;18.50;15.38;;;;;;;18.00;100.00;100501.16;5071621;28;20079;-81
2021/09/11 04:39:55;;;;;;;18.15;15.70;;;;;;;17.98;100.00;100495.06;5073074;28;20050;-82
2021/09/11 04:42:24;;;;;;;17.52;15.23;;;;;;;17.98;100.00;100495.91;5079202;28;20048;-82
2021/09/11 04:44:51;;;;;;;18.20;15.77;;;;;;;18.00;100.00;100501.16;5070124;28;20051;-82
2021/09/11 04:47:17;;;;;;;16.20;14.45;;;;;;;17.98;100.00;100509.31;5080595;28;20108;-81
2021/09/11 04:49:44;;;;;;;17.80;15.23;;;;;;;17.95;100.00;100500.66;5081809;28;20139;-81
2021/09/11 04:52:12;;;;;;;17.27;14.48;;;;;;;17.96;100.00;100500.53;5077857;28;20071;-81
2021/09/11 04:54:38;;;;;;;15.95;14.20;;;;;;;17.90;100.00;100495.66;5056557;28;20048;-81
2021/09/11 04:57:05;;;;;;;16.83;15.05;;;;;;;17.87;100.00;100496.75;5078128;28;20044;-81
2021/09/11 04:59:32;;;;;;;17.27;14.90;;;;;;;17.85;100.00;100498.69;5082412;28;20127;-81
2021/09/11 05:01:59;;;;;;;16.67;14.38;;;;;;;17.81;100.00;100497.19;5089227;28;20048;-81
2021/09/11 05:04:26;;;;;;;18.58;15.23;;;;;;;17.80;100.00;100495.47;5079601;28;20115;-82
2021/09/11 05:06:53;;;;;;;20.10;15.18;;;;;;;17.81;100.00;100499.88;5070030;28;20052;-82
2021/09/11 05:09:20;;;;;;;17.33;14.48;;;;;;;17.79;100.00;100501.81;5083782;28;20044;-81
2021/09/11 05:11:47;;;;;;;16.58;14.00;;;;;;;17.81;100.00;100497.19;5075227;28;20442;-82
2021/09/11 05:14:14;;;;;;;15.48;13.70;;;;;;;17.84;100.00;100510.34;5063645;28;20051;-82
2021/09/11 05:16:41;;;;;;;15.63;13.52;;;;;;;17.86;100.00;100505.75;5064008;28;20055;-82
2021/09/11 05:19:07;;;;;;;17.10;13.95;;;;;;;17.87;100.00;100498.56;5079145;28;20064;-82
2021/09/11 05:21:34;;;;;;;16.35;13.98;;;;;;;17.88;100.00;100502.94;5073033;28;20057;-83
2021/09/11 05:24:01;;;;;;;15.75;12.88;;;;;;;17.91;100.00;100504.56;5076666;28;20056;-83
2021/09/11 05:26:28;;;;;;;15.25;13.15;;;;;;;17.91;100.00;100507.22;5078393;28;20048;-83
2021/09/11 05:28:54;;;;;;;16.48;12.48;;;;;;;17.91;100.00;100505.41;5073807;28;20662;-83
2021/09/11 05:31:21;;;;;;;14.85;13.00;;;;;;;17.95;100.00;100506.00;5079713;28;20045;-82
2021/09/11 05:33:48;;;;;;;16.33;12.80;;;;;;;17.97;100.00;100510.28;5078057;28;20040;-82
2021/09/11 05:36:15;;;;;;;14.60;12.70;;;;;;;18.04;100.00;100511.53;5072559;28;20051;-82
2021/09/11 05:38:42;;;;;;;15.63;12.73;;;;;;;18.11;100.00;100509.22;5053650;28;22667;-83
2021/09/11 05:41:08;;;;;;;15.02;12.57;;;;;;;18.21;100.00;100510.25;5060069;28;20051;-82
2021/09/11 05:43:35;;;;;;;14.50;12.10;;;;;;;18.30;100.00;100514.88;5074987;28;20499;-82
2021/09/11 05:46:01;;;;;;;13.48;12.07;;;;;;;18.38;100.00;100503.59;5077205;28;20055;-82
2021/09/11 05:48:28;;;;;;;13.07;11.77;;;;;;;18.38;100.00;100509.81;5070450;28;20045;-83
2021/09/11 05:50:55;;;;;;;11.98;10.75;;;;;;;18.42;100.00;100513.94;5077701;28;20054;-83
2021/09/11 05:53:22;;;;;;;12.40;10.38;;;;;;;18.46;100.00;100514.56;5071983;28;20059;-83
2021/09/11 05:55:48;;;;;;;11.98;10.77;;;;;;;18.53;100.00;100518.47;5073025;28;20763;-82
2021/09/11 05:58:15;;;;;;;11.65;10.45;;;;;;;18.60;100.00;100521.56;5063139;28;20259;-82
2021/09/11 06:00:42;;;;;;;12.38;10.55;;;;;;;18.69;100.00;100518.16;5078078;28;20415;-82
2021/09/11 06:03:08;;;;;;;12.75;10.73;;;;;;;18.77;100.00;100523.78;5073825;28;20094;-81
2021/09/11 06:05:36;;;;;;;11.90;9.75;;;;;;;18.84;100.00;100525.00;5071201;28;20045;-82
2021/09/11 06:08:05;;;;;;;11.60;10.05;;;;;;;18.86;100.00;100523.06;5078339;28;20090;-82
2021/09/11 06:10:31;;;;;;;12.85;9.45;;;;;;;18.87;99.53;100524.78;5071141;28;20371;-82
2021/09/11 06:12:59;;;;;;;10.65;9.55;;;;;;;18.85;99.82;100532.09;5074741;28;20036;-82
2021/09/11 06:15:26;;;;;;;15.20;9.60;;;;;;;18.85;100.00;100527.56;5075816;28;20068;-82
2021/09/11 06:17:53;;;;;;;12.73;9.55;;;;;;;18.83;99.70;100520.63;5075777;28;20111;-82
2021/09/11 06:20:20;;;;;;;10.80;9.27;;;;;;;18.85;99.86;100532.09;5086700;28;20051;-81
2021/09/11 06:22:47;;;;;;;11.25;9.35;;;;;;;18.86;99.73;100528.44;5065384;28;20059;-81
2021/09/11 06:25:15;;;;;;;10.75;9.65;;;;;;;18.87;99.59;100524.78;5099601;28;20037;-81
2021/09/11 06:27:42;;;;;;;11.02;8.88;;;;;;;18.92;99.44;100525.25;5099863;28;20103;-81
2021/09/11 06:30:11;;;;;;;11.30;8.63;;;;;;;18.96;99.43;100529.41;5093710;28;20049;-82
2021/09/11 06:32:38;;;;;;;9.55;8.65;;;;;;;19.02;99.42;100534.28;5093758;28;20092;-82
2021/09/11 06:35:07;;;;;;;9.93;8.32;;;;;;;19.06;98.48;100535.72;5099532;28;20040;-82
2021/09/11 06:37:34;;;;;;;8.40;7.55;;;;;;;19.07;98.49;100529.38;5064375;28;20112;-82
2021/09/11 06:40:01;;;;;;;9.55;8.55;;;;;;;19.12;98.08;100545.97;5074244;28;20051;-82
2021/09/11 06:42:27;;;;;;;8.85;7.97;;;;;;;19.18;98.09;100534.75;5078834;28;20033;-81
2021/09/11 06:44:54;;;;;;;10.15;8.80;;;;;;;19.33;96.58;100546.09;5084466;28;20071;-82
2021/09/11 06:47:23;;;;;;;9.98;8.63;;;;;;;19.40;95.88;100544.59;5088656;28;20734;-82
2021/09/11 06:49:50;;;;;;;10.00;9.05;;;;;;;19.43;95.70;100541.66;5080561;28;20059;-82
2021/09/11 06:52:20;;;;;;;9.75;8.65;;;;;;;19.46;95.41;100543.25;5077130;28;20064;-82
2021/09/11 06:54:47;;;;;;;11.68;9.05;;;;;;;19.47;95.42;100540.44;5080392;28;20058;-82
2021/09/11 06:57:14;;;;;;;14.10;9.18;;;;;;;19.49;95.67;100549.28;5076283;28;20064;-82
2021/09/11 06:59:41;;;;;;;10.32;8.55;;;;;;;19.50;95.90;100550.97;5077746;28;20052;-82
2021/09/11 07:02:08;;;;;;;10.95;8.73;;;;;;;19.49;94.87;100553.75;5076332;28;20100;-84
2021/09/11 07:04:35;;;;;;;12.52;9.70;;;;;;;19.45;95.06;100553.16;5079129;28;20448;-82
2021/09/11 07:07:02;;;;;;;11.13;9.70;;;;;;;19.41;95.43;100557.06;5068593;28;20085;-83
2021/09/11 07:09:29;;;;;;;10.88;9.32;;;;;;;19.42;95.57;100555.22;5074801;28;20079;-81
2021/09/11 07:11:56;;;;;;;10.77;9.48;;;;;;;19.37;95.91;100563.63;5086169;28;20041;-81
2021/09/11 07:14:24;;;;;;;10.82;9.65;;;;;;;19.32;95.78;100562.31;5076893;28;20059;-81
2021/09/11 07:16:50;;;;;;;12.30;9.50;;;;;;;19.32;96.25;100557.81;5078317;28;20104;-82
2021/09/11 07:19:17;;;;;;;9.50;8.45;;;;;;;19.32;96.33;100565.00;5086118;28;20064;-80
2021/09/11 07:21:44;;;;;;;11.18;9.48;;;;;;;19.30;95.85;100561.59;5083062;28;20149;-81
2021/09/11 07:24:11;;;;;;;10.60;9.50;;;;;;;19.37;97.81;100565.47;5086613;28;20076;-81
2021/09/11 07:26:37;;;;;;;11.57;9.73;;;;;;;19.39;96.81;100568.88;5082890;28;20080;-81
2021/09/11 07:29:04;;;;;;;10.85;9.70;;;;;;;19.43;97.47;100567.66;5087436;28;20040;-81
2021/09/11 07:31:30;;;;;;;12.20;9.98;;;;;;;19.44;96.21;100569.38;5090312;28;20123;-82
2021/09/11 07:33:57;;;;;;;12.23;9.55;;;;;;;19.45;96.90;100571.94;5106472;28;20056;-81
2021/09/11 07:36:24;;;;;;;11.75;9.95;;;;;;;19.54;96.79;100573.03;5093147;28;20057;-81
2021/09/11 07:38:50;;;;;;;12.45;10.18;;;;;;;19.63;96.30;100572.31;5079609;28;20044;-81
2021/09/11 07:41:17;;;;;;;12.85;9.75;;;;;;;19.73;95.16;100569.72;5087508;28;20040;-82
2021/09/11 07:43:44;;;;;;;12.52;10.57;;;;;;;19.88;93.59;100579.19;5079861;28;20086;-81
2021/09/11 07:46:11;;;;;;;13.45;9.98;;;;;;;20.08;92.51;100588.31;5087034;28;20116;-81
2021/09/11 07:48:39;;;;;;;13.52;9.45;;;;;;;20.18;92.27;100573.94;5089379;28;20090;-82
2021/09/11 07:51:05;;;;;;;12.75;10.70;;;;;;;20.29;90.78;100576.59;5091587;28;20116;-80
2021/09/11 07:53:32;;;;;;;11.40;10.07;;;;;;;20.33;90.36;100582.56;5085346;28;20048;-81
2021/09/11 07:55:59;;;;;;;11.70;9.85;;;;;;;20.40;89.98;100583.78;5084729;28;20052;-82
2021/09/11 07:58:28;;;;;;;11.98;9.73;;;;;;;20.46;88.55;100582.44;5079724;28;20048;-81
2021/09/11 08:00:55;;;;;;;12.02;9.30;;;;;;;20.47;88.36;100581.41;5101980;28;20108;-81
2021/09/11 08:03:23;;;;;;;12.23;9.90;;;;;;;20.54;88.56;100590.69;5091078;28;20067;-81
2021/09/11 08:05:51;;;;;;;11.13;9.68;;;;;;;20.58;88.07;100587.59;5081138;28;20044;-81
2021/09/11 08:08:17;;;;;;;12.88;10.13;;;;;;;20.60;88.93;100587.47;5092010;28;20100;-81
2021/09/11 08:10:46;;;;;;;10.43;9.40;;;;;;;20.57;87.50;100590.44;5082604;28;20053;-81
2021/09/11 08:13:17;;;;;;;11.20;9.45;;;;;;;20.50;87.63;100584.69;5088944;28;20048;-80
2021/09/11 08:15:45;;;;;;;12.75;9.57;;;;;;;20.47;86.45;100584.09;5094169;28;20045;-81
2021/09/11 08:18:17;;;;;;;14.60;10.52;;;;;;;20.52;86.21;100577.34;5089394;28;20104;-85
2021/09/11 08:20:45;;;;;;;12.30;9.40;;;;;;;20.54;85.73;100583.47;5076999;28;20049;-85
2021/09/11 08:23:13;;;;;;;14.70;9.80;;;;;;;20.58;85.56;100584.91;5072015;28;20083;-87
2021/09/11 08:25:42;;;;;;;12.13;9.65;;;;;;;20.70;85.52;100588.38;5073249;28;20102;-86
2021/09/11 08:28:09;;;;;;;13.52;10.00;;;;;;;20.82;84.34;100590.00;5051621;28;20051;-83
2021/09/11 08:30:36;;;;;;;15.05;10.05;;;;;;;20.94;83.04;100594.31;5080086;28;20680;-83
2021/09/11 08:33:16;;;;;;;11.30;8.80;;;;;;;21.00;82.30;100592.94;5080456;28;20047;-85
2021/09/11 08:35:45;;;;;;;10.48;9.02;;;;;;;21.05;81.49;100598.78;5079241;28;20053;-84
2021/09/11 08:38:11;;;;;;;12.73;9.07;;;;;;;21.05;81.05;100593.41;5066383;28;20484;-80
2021/09/11 08:40:38;;;;;;;13.25;8.85;;;;;;;21.20;80.28;100597.47;5065640;28;20053;-83
2021/09/11 08:43:05;;;;;;;10.43;9.07;;;;;;;21.25;80.00;100605.97;5085900;28;20048;-85
2021/09/11 08:45:35;;;;;;;9.93;8.77;;;;;;;21.29;79.11;100606.56;5084974;28;20151;-84
2021/09/11 08:48:03;;;;;;;9.82;8.10;;;;;;;21.34;79.54;100602.50;5095782;28;20055;-83
2021/09/11 08:50:31;;;;;;;9.75;8.75;;;;;;;21.44;78.57;100605.22;5097657;28;20083;-83
2021/09/11 08:53:02;;;;;;;9.23;8.32;;;;;;;21.52;78.17;100607.22;5091012;28;20082;-85
2021/09/11 08:55:29;;;;;;;9.65;8.25;;;;;;;21.55;77.17;100610.50;5080985;28;20052;-85
2021/09/11 08:58:03;;;;;;;11.35;9.07;;;;;;;21.45;77.17;100604.22;5061042;28;20094;-85
2021/09/11 09:00:47;;;;;;;9.75;8.73;;;;;;;21.42;78.35;100601.78;5060801;28;20132;-85
2021/09/11 09:03:36;;;;;;;10.68;8.02;;;;;;;21.50;77.99;100606.50;5059874;28;20059;-83
2021/09/11 09:06:18;;;;;;;9.20;8.27;;;;;;;21.57;77.98;100610.34;5069582;28;20048;-85
2021/09/11 09:08:48;;;;;;;11.35;8.70;;;;;;;21.68;77.39;100608.41;5073811;28;20124;-84
2021/09/11 09:11:22;;;;;;;10.98;8.52;;;;;;;21.80;76.64;100616.38;5065617;28;20048;-85
2021/09/11 09:13:52;;;;;;;9.25;7.68;;;;;;;21.91;75.90;100611.72;5054592;28;20174;-85
2021/09/11 09:16:19;;;;;;;9.43;8.05;;;;;;;21.95;75.43;100612.28;5070629;28;20112;-84
2021/09/11 09:18:47;;;;;;;8.88;7.40;;;;;;;22.04;75.00;100611.47;5087447;28;20049;-84
2021/09/11 09:21:17;;;;;;;9.02;7.38;;;;;;;22.19;75.27;100617.34;5075280;28;20087;-88
2021/09/11 09:23:54;;;;;;;7.60;6.82;;;;;;;22.39;74.09;100611.78;5072751;28;20070;-84
2021/09/11 09:26:21;;;;;;;7.80;7.00;;;;;;;22.46;73.09;100603.13;5070997;28;20075;-85
2021/09/11 09:29:09;;;;;;;10.25;7.38;;;;;;;22.42;72.89;100605.25;5075310;28;20063;-85
2021/09/11 09:31:37;;;;;;;7.90;6.43;;;;;;;22.27;73.60;100607.53;5079942;28;20131;-83
2021/09/11 09:34:04;;;;;;;8.52;7.45;;;;;;;22.03;73.52;100609.81;5063867;28;20653;-84
2021/09/11 09:36:36;;;;;;;8.30;7.30;;;;;;;21.80;74.70;100619.94;5061230;28;20047;-85
2021/09/11 09:39:09;;;;;;;10.30;8.00;;;;;;;21.61;75.28;100603.69;5077712;28;20044;-84
2021/09/11 09:41:47;;;;;;;10.20;8.07;;;;;;;21.48;75.93;100603.09;5068383;28;20044;-84
2021/09/11 09:44:15;;;;;;;8.60;7.72;;;;;;;21.39;77.02;100602.09;5077567;28;20044;-84
2021/09/11 09:46:44;;;;;;;10.60;7.47;;;;;;;21.41;77.96;100597.41;5042957;28;20072;-83
2021/09/11 09:49:16;;;;;;;11.15;7.63;;;;;;;21.57;77.30;100594.19;5072701;28;20485;-86
2021/09/11 09:51:43;;;;;;;8.65;7.30;;;;;;;21.74;76.78;100593.53;5078387;28;20059;-85
2021/09/11 09:54:12;;;;;;;12.80;7.20;;;;;;;21.76;75.98;100599.63;5064206;28;20059;-85
2021/09/11 09:56:40;;;;;;;8.73;7.45;;;;;;;21.81;75.97;100592.00;5063578;28;20052;-84
2021/09/11 09:59:09;;;;;;;10.20;7.20;;;;;;;21.95;75.22;100594.28;5076270;28;20063;-85
2021/09/11 10:01:36;;;;;;;10.15;6.82;;;;;;;22.18;74.09;100594.06;5067210;28;20052;-85
2021/09/11 10:04:22;;;;;;;9.73;7.15;;;;;;;22.40;72.65;100594.59;5080415;28;20054;-85
2021/09/11 10:06:53;;;;;;;8.30;6.82;;;;;;;22.56;71.91;100587.75;5082036;28;20449;-84
2021/09/11 10:09:24;;;;;;;8.02;6.90;;;;;;;22.71;71.78;100581.78;5078389;28;20041;-84
2021/09/11 10:11:52;;;;;;;8.65;6.70;;;;;;;22.93;69.88;100588.72;5088577;28;20107;-85
2021/09/11 10:14:22;;;;;;;7.65;6.53;;;;;;;23.15;68.00;100586.63;5093270;28;20104;-86
2021/09/11 10:17:07;;;;;;;6.95;6.22;;;;;;;23.42;67.56;100579.44;5076445;28;20098;-85
2021/09/11 10:19:42;;;;;;;9.43;6.32;;;;;;;23.79;66.87;100587.47;5079242;28;20051;-85
2021/09/11 10:22:15;;;;;;;9.93;7.03;;;;;;;23.89;65.97;100586.59;5083639;28;20112;-84
2021/09/11 10:24:47;;;;;;;8.07;6.70;;;;;;;23.69;65.17;100588.56;5084153;28;20072;-86
2021/09/11 10:27:24;;;;;;;11.10;5.95;;;;;;;23.52;66.36;100573.16;5088349;28;20052;-86
2021/09/11 10:29:56;;;;;;;7.88;6.55;;;;;;;23.40;66.45;100565.22;5097827;28;20051;-83
2021/09/11 10:32:40;;;;;;;6.72;6.03;;;;;;;23.48;66.62;100571.69;5096050;28;20047;-84
2021/09/11 10:35:17;;;;;;;7.20;6.00;;;;;;;23.55;66.42;100565.59;5087673;28;20108;-82
2021/09/11 10:41:30;;;;;;;6.43;5.32;;;;;;;23.62;65.31;100558.56;5081219;28;20764;-81
2021/09/11 10:44:07;;;;;;;6.18;5.32;;;;;;;23.68;65.74;100555.25;5086067;28;20047;-84
2021/09/11 10:46:53;;;;;;;6.20;5.00;;;;;;;23.75;64.66;100552.81;5082510;28;20044;-84
2021/09/11 10:49:32;;;;;;;7.45;5.47;;;;;;;23.67;63.22;100547.28;5075390;28;20155;-86
2021/09/11 10:52:07;;;;;;;7.80;5.85;;;;;;;23.55;64.80;100548.53;5076836;28;20052;-84
2021/09/11 10:54:41;;;;;;;7.10;5.65;;;;;;;23.48;65.39;100556.34;5084609;28;20080;-85
2021/09/11 10:57:32;;;;;;;8.02;6.40;;;;;;;23.39;65.34;100552.69;5071343;28;20129;-83
2021/09/11 11:00:23;;;;;;;7.57;5.38;;;;;;;23.33;65.98;100553.28;5080159;28;20086;-83
2021/09/11 11:03:18;;;;;;;6.88;5.88;;;;;;;23.51;65.39;100547.06;5077405;28;20052;-84
2021/09/11 11:06:10;;;;;;;8.60;5.20;;;;;;;23.66;64.94;100546.44;5074426;28;20098;-83
2021/09/11 11:08:37;;;;;;;5.68;4.43;;;;;;;23.77;64.56;100545.38;5079279;28;20385;-83
2021/09/11 11:11:05;;;;;;;10.25;5.25;;;;;;;23.89;63.51;100541.47;5069696;28;20049;-85
2021/09/11 11:13:32;;;;;;;6.05;4.60;;;;;;;23.93;63.48;100541.97;5074517;28;20051;-84
2021/09/11 11:15:58;;;;;;;7.72;4.75;;;;;;;24.00;63.58;100543.91;5057500;28;20380;-83
2021/09/11 11:18:28;;;;;;;5.60;4.85;;;;;;;24.06;63.58;100531.66;5072431;28;20041;-83
2021/09/11 11:20:55;;;;;;;4.70;4.15;;;;;;;24.09;63.92;100539.41;5071044;28;20049;-83